createdAt,value
2023-04-26T00:02:51.058Z,3.60
2023-04-26T00:05:52.767Z,3.53
2023-04-26T00:08:55.006Z,3.08
2023-04-26T00:11:57.089Z,3.55
2023-04-26T00:14:58.825Z,3.57
2023-04-26T00:18:00.793Z,3.45
2023-04-26T00:21:05.149Z,3.90
2023-04-26T00:24:07.278Z,3.50
2023-04-26T00:27:10.540Z,3.58
2023-04-26T00:30:12.556Z,3.67
2023-04-26T00:33:14.393Z,3.75
2023-04-26T00:36:19.204Z,3.88
2023-04-26T00:39:22.239Z,3.60
2023-04-26T00:42:23.873Z,3.25
2023-04-26T00:45:25.543Z,3.70
2023-04-26T00:48:27.161Z,3.47
2023-04-26T00:51:28.800Z,3.17
2023-04-26T00:54:30.337Z,3.33
2023-04-26T00:57:31.878Z,2.78
2023-04-26T01:00:33.401Z,3.40
2023-04-26T01:03:35.195Z,3.78
2023-04-26T01:06:38.569Z,3.67
2023-04-26T01:09:40.328Z,3.88
2023-04-26T01:12:42.116Z,3.40
2023-04-26T01:15:47.002Z,3.35
2023-04-26T01:18:53.159Z,3.63
2023-04-26T01:21:54.885Z,3.38
2023-04-26T01:24:56.482Z,3.20
2023-04-26T01:27:58.125Z,3.23
2023-04-26T01:30:59.833Z,2.40
2023-04-26T01:34:01.547Z,2.90
2023-04-26T01:37:03.083Z,3.00
2023-04-26T01:40:08.036Z,3.17
2023-04-26T01:43:09.578Z,3.20
2023-04-26T01:46:11.253Z,3.67
2023-04-26T01:49:12.836Z,3.70
2023-04-26T01:52:14.435Z,3.67
2023-04-26T01:55:16.041Z,3.37
2023-04-26T01:58:17.683Z,3.20
2023-04-26T02:01:19.484Z,3.40
2023-04-26T02:04:21.620Z,3.30
2023-04-26T02:07:23.215Z,3.20
2023-04-26T02:10:24.872Z,3.00
2023-04-26T02:13:27.004Z,3.38
2023-04-26T02:16:28.655Z,4.88
2023-04-26T02:19:31.023Z,4.00
2023-04-26T02:22:32.609Z,3.65
2023-04-26T02:25:34.130Z,3.30
2023-04-26T02:28:35.668Z,3.25
2023-04-26T02:31:37.242Z,2.80
2023-04-26T02:34:39.167Z,3.20
2023-04-26T02:37:40.787Z,4.30
2023-04-26T02:40:42.398Z,3.47
2023-04-26T02:43:44.135Z,3.07
2023-04-26T02:46:45.866Z,3.47
2023-04-26T02:49:47.742Z,3.03
2023-04-26T02:52:49.425Z,2.80
2023-04-26T02:55:51.350Z,3.53
2023-04-26T02:58:53.046Z,3.55
2023-04-26T03:01:54.819Z,3.25
2023-04-26T03:04:56.491Z,3.75
2023-04-26T03:07:58.085Z,3.07
2023-04-26T03:10:59.779Z,3.50
2023-04-26T03:14:01.372Z,4.23
2023-04-26T03:17:03.026Z,4.03
2023-04-26T03:20:07.051Z,3.45
2023-04-26T03:23:08.690Z,3.50
2023-04-26T03:26:10.842Z,2.87
2023-04-26T03:29:12.576Z,3.25
2023-04-26T03:32:14.376Z,3.15
2023-04-26T03:35:16.197Z,3.00
2023-04-26T03:38:17.915Z,3.50
2023-04-26T03:41:19.487Z,3.47
2023-04-26T03:44:21.166Z,3.37
2023-04-26T03:47:22.824Z,4.40
2023-04-26T03:50:24.366Z,3.10
2023-04-26T03:53:25.996Z,3.03
2023-04-26T03:56:27.626Z,9.87
2023-04-26T03:59:29.153Z,13.23
2023-04-26T04:02:31.581Z,11.55
2023-04-26T04:08:36.909Z,3.95
2023-04-26T04:11:38.498Z,4.00
2023-04-26T04:14:40.093Z,3.85
2023-04-26T04:17:41.728Z,4.53
2023-04-26T04:20:43.375Z,3.73
2023-04-26T04:23:44.925Z,3.53
2023-04-26T04:26:46.588Z,3.07
2023-04-26T04:29:48.532Z,3.20
2023-04-26T04:32:50.189Z,3.92
2023-04-26T04:35:52.506Z,3.73
2023-04-26T04:38:54.590Z,3.88
2023-04-26T04:41:56.487Z,4.35
2023-04-26T04:44:59.565Z,3.80
2023-04-26T04:48:01.376Z,4.25
2023-04-26T04:51:03.060Z,3.92
2023-04-26T04:54:18.135Z,4.77
2023-04-26T04:57:20.246Z,3.90
2023-04-26T05:00:21.938Z,3.47
2023-04-26T05:03:23.827Z,4.00
2023-04-26T05:06:27.561Z,4.28
2023-04-26T05:09:29.188Z,3.45
2023-04-26T05:12:30.792Z,4.10
2023-04-26T05:15:32.408Z,4.00
2023-04-26T05:18:33.969Z,4.00
2023-04-26T05:21:35.557Z,14.03
2023-04-26T05:24:37.079Z,10.30
2023-04-26T05:27:38.687Z,5.78
2023-04-26T05:30:42.470Z,3.63
2023-04-26T05:33:44.072Z,3.55
2023-04-26T05:36:45.773Z,4.25
2023-04-26T05:39:47.356Z,3.40
2023-04-26T05:42:50.073Z,4.10
2023-04-26T05:45:55.838Z,3.67
2023-04-26T05:48:57.548Z,5.13
2023-04-26T05:51:59.881Z,6.60
2023-04-26T05:55:04.851Z,5.35
2023-04-26T05:58:06.618Z,4.55
2023-04-26T06:01:08.823Z,5.53
2023-04-26T06:04:10.957Z,10.20
2023-04-26T06:10:14.501Z,5.07
2023-04-26T06:13:16.402Z,4.30
2023-04-26T06:16:18.052Z,4.37
2023-04-26T06:19:19.663Z,3.78
2023-04-26T06:22:21.295Z,3.70
2023-04-26T06:25:22.972Z,4.30
2023-04-26T06:28:26.960Z,7.87
2023-04-26T06:31:28.567Z,6.43
2023-04-26T06:34:30.579Z,4.07
2023-04-26T06:37:32.226Z,3.78
2023-04-26T06:40:34.062Z,4.13
2023-04-26T06:43:36.063Z,4.38
2023-04-26T06:46:39.954Z,4.03
2023-04-26T06:49:42.270Z,4.18
2023-04-26T06:52:44.002Z,3.90
2023-04-26T06:55:46.142Z,4.13
2023-04-26T06:59:03.396Z,4.20
2023-04-26T07:02:05.194Z,4.65
2023-04-26T07:05:07.250Z,24.33
2023-04-26T07:08:14.838Z,5.68
2023-04-26T07:11:16.685Z,4.38
2023-04-26T07:14:19.024Z,4.25
2023-04-26T07:20:25.980Z,5.93
2023-04-26T07:23:29.442Z,5.40
2023-04-26T07:26:31.484Z,5.10
2023-04-26T07:29:33.144Z,4.68
2023-04-26T07:32:37.393Z,6.10
2023-04-26T07:35:39.094Z,5.20
2023-04-26T07:38:42.988Z,5.55
2023-04-26T07:41:44.768Z,5.40
2023-04-26T07:44:48.346Z,5.10
2023-04-26T07:47:50.024Z,4.93
2023-04-26T07:50:52.140Z,5.55
2023-04-26T07:53:55.640Z,8.65
2023-04-26T07:56:57.361Z,8.52
2023-04-26T07:59:59.027Z,8.52
2023-04-26T08:03:00.998Z,6.75
2023-04-26T08:06:03.136Z,4.55
2023-04-26T08:09:05.287Z,5.68
2023-04-26T08:12:07.329Z,5.75
2023-04-26T08:15:09.624Z,5.75
2023-04-26T08:21:12.971Z,5.03
2023-04-26T08:24:14.802Z,4.95
2023-04-26T08:27:19.307Z,4.60
2023-04-26T08:30:21.471Z,4.32
2023-04-26T08:36:24.642Z,4.25
2023-04-26T08:39:26.241Z,4.03
2023-04-26T08:42:28.542Z,4.32
2023-04-26T08:45:30.204Z,4.32
2023-04-26T08:48:31.902Z,4.38
2023-04-26T08:51:33.936Z,3.80
2023-04-26T08:54:36.998Z,3.47
2023-04-26T08:57:38.790Z,4.00
2023-04-26T09:00:40.444Z,3.35
2023-04-26T09:03:42.353Z,5.20
2023-04-26T09:06:44.553Z,4.53
2023-04-26T09:09:48.121Z,5.75
2023-04-26T09:12:53.502Z,5.93
2023-04-26T09:16:01.962Z,5.55
2023-04-26T09:19:06.075Z,6.20
2023-04-26T09:22:08.927Z,6.53
2023-04-26T09:25:11.446Z,6.63
2023-04-26T09:28:21.125Z,6.40
2023-04-26T09:31:42.678Z,7.55
2023-04-26T09:34:45.632Z,6.82
2023-04-26T09:38:02.969Z,6.35
2023-04-26T09:41:07.466Z,7.05
2023-04-26T09:44:21.035Z,6.88
2023-04-26T09:47:22.902Z,6.88
2023-04-26T09:50:31.058Z,6.60
2023-04-26T09:53:40.398Z,6.43
2023-04-26T09:56:41.944Z,6.75
2023-04-26T09:59:44.830Z,6.07
2023-04-26T10:02:46.462Z,6.25
2023-04-26T10:05:48.208Z,5.93
2023-04-26T10:08:56.573Z,6.38
2023-04-26T10:12:01.660Z,5.90
2023-04-26T10:15:03.761Z,6.35
2023-04-26T10:18:05.626Z,5.85
2023-04-26T10:21:19.227Z,3.92
2023-04-26T10:24:20.835Z,3.90
2023-04-26T10:27:44.396Z,4.68
2023-04-26T10:30:57.761Z,3.70
2023-04-26T10:34:18.886Z,3.05
2023-04-26T10:37:20.508Z,3.75
2023-04-26T10:40:27.368Z,3.42
2023-04-26T10:43:29.223Z,3.10
2023-04-26T10:46:51.261Z,2.92
2023-04-26T10:49:53.253Z,3.20
2023-04-26T10:53:01.990Z,3.95
2023-04-26T10:56:04.336Z,3.20
2023-04-26T10:59:30.657Z,3.83
2023-04-26T11:02:55.253Z,3.75
2023-04-26T11:05:58.861Z,3.50
2023-04-26T11:09:00.451Z,3.55
2023-04-26T11:12:04.353Z,3.60
2023-04-26T11:15:06.389Z,4.85
2023-04-26T11:18:08.378Z,3.95
2023-04-26T11:24:11.876Z,3.50
2023-04-26T11:27:13.417Z,3.30
2023-04-26T11:30:15.048Z,3.55
2023-04-26T11:33:25.825Z,2.90
2023-04-26T11:36:27.512Z,3.03
2023-04-26T11:39:29.291Z,3.15
2023-04-26T11:42:31.181Z,4.25
2023-04-26T11:45:34.219Z,2.95
2023-04-26T11:48:36.262Z,2.97
2023-04-26T11:51:37.780Z,3.00
2023-04-26T11:54:39.489Z,3.05
2023-04-26T11:57:41.255Z,3.35
2023-04-26T12:00:56.312Z,2.90
2023-04-26T12:03:59.049Z,3.10
2023-04-26T12:07:00.894Z,3.30
2023-04-26T12:10:21.134Z,3.53
2023-04-26T12:13:22.869Z,3.33
2023-04-26T12:16:26.833Z,2.85
2023-04-26T12:19:36.770Z,2.83
2023-04-26T12:22:41.110Z,3.15
2023-04-26T12:25:52.619Z,2.78
2023-04-26T12:28:54.195Z,2.60
2023-04-26T12:31:55.912Z,3.22
2023-04-26T12:34:59.944Z,2.55
2023-04-26T12:38:01.790Z,3.05
2023-04-26T12:41:03.580Z,3.03
2023-04-26T12:44:05.527Z,3.92
2023-04-26T12:47:07.170Z,2.78
2023-04-26T12:50:09.233Z,3.20
2023-04-26T12:56:16.449Z,3.50
2023-04-26T12:59:18.102Z,2.95
2023-04-26T13:02:19.689Z,3.05
2023-04-26T13:05:24.641Z,2.40
2023-04-26T13:08:26.229Z,2.88
2023-04-26T13:11:32.399Z,3.03
2023-04-26T13:14:43.447Z,3.28
2023-04-26T13:17:50.239Z,3.15
2023-04-26T13:20:52.046Z,3.05
2023-04-26T13:23:53.639Z,3.53
2023-04-26T13:26:55.571Z,3.13
2023-04-26T13:29:57.173Z,2.75
2023-04-26T13:33:00.481Z,2.97
2023-04-26T13:36:02.311Z,2.90
2023-04-26T13:39:05.246Z,3.15
2023-04-26T13:42:07.107Z,2.88
2023-04-26T13:45:17.004Z,2.90
2023-04-26T13:48:19.820Z,3.20
2023-04-26T13:51:30.760Z,2.85
2023-04-26T13:54:32.439Z,3.20
2023-04-26T13:57:39.833Z,2.65
2023-04-26T14:00:44.065Z,3.00
2023-04-26T14:03:55.589Z,3.22
2023-04-26T14:07:06.381Z,3.35
2023-04-26T14:10:08.397Z,3.17
2023-04-26T14:13:10.170Z,3.47
2023-04-26T14:16:11.775Z,3.25
2023-04-26T14:19:15.417Z,2.88
2023-04-26T14:22:17.771Z,2.95
2023-04-26T14:25:22.563Z,3.40
2023-04-26T14:28:24.214Z,3.33
2023-04-26T14:31:26.378Z,3.22
2023-04-26T14:37:29.463Z,3.70
2023-04-26T14:40:31.047Z,3.03
2023-04-26T14:43:35.921Z,3.22
2023-04-26T14:46:37.543Z,3.28
2023-04-26T14:49:39.098Z,3.50
2023-04-26T14:52:40.799Z,3.53
2023-04-26T14:55:42.377Z,3.60
2023-04-26T14:58:44.088Z,3.53
2023-04-26T15:01:45.758Z,3.55
2023-04-26T15:04:47.614Z,3.83
2023-04-26T15:10:51.474Z,3.33
2023-04-26T15:13:53.063Z,2.95
2023-04-26T15:16:54.683Z,2.90
2023-04-26T15:19:58.966Z,3.60
2023-04-26T15:23:02.668Z,2.90
2023-04-26T15:26:04.526Z,2.58
2023-04-26T15:29:06.113Z,2.63
2023-04-26T15:32:07.674Z,2.67
2023-04-26T15:35:12.826Z,2.55
2023-04-26T15:38:14.405Z,2.53
2023-04-26T15:41:16.106Z,2.35
2023-04-26T15:44:17.757Z,2.83
2023-04-26T15:47:22.637Z,3.00
2023-04-26T15:50:24.265Z,2.55
2023-04-26T15:53:25.831Z,2.97
2023-04-26T15:56:28.781Z,2.88
2023-04-26T15:59:30.783Z,2.72
2023-04-26T16:02:35.230Z,3.15
2023-04-26T16:05:39.825Z,2.97
2023-04-26T16:08:41.525Z,3.05
2023-04-26T16:11:43.287Z,2.67
2023-04-26T16:14:48.832Z,2.58
2023-04-26T16:17:50.468Z,3.00
2023-04-26T16:20:52.359Z,5.97
2023-04-26T16:23:57.120Z,5.10
2023-04-26T16:26:58.810Z,4.63
2023-04-26T16:30:00.582Z,7.20
2023-04-26T16:33:04.520Z,2.55
2023-04-26T16:36:06.586Z,3.92
2023-04-26T16:39:08.268Z,3.22
2023-04-26T16:42:09.950Z,3.05
2023-04-26T16:45:25.888Z,2.92
2023-04-26T16:48:29.920Z,2.90
2023-04-26T16:51:38.856Z,11.85
2023-04-26T16:54:40.414Z,4.00
2023-04-26T16:57:42.479Z,5.10
2023-04-26T17:00:45.638Z,8.88
2023-04-26T17:03:47.713Z,2.88
2023-04-26T17:09:54.640Z,15.15
2023-04-26T17:12:56.357Z,6.40
2023-04-26T17:15:59.339Z,17.55
2023-04-26T17:19:01.022Z,8.05
2023-04-26T17:22:02.958Z,7.15
2023-04-26T17:25:05.000Z,3.72
2023-04-26T17:28:06.771Z,3.50
2023-04-26T17:31:08.490Z,2.88
2023-04-26T17:34:19.862Z,18.35
2023-04-26T17:37:30.525Z,47.92
2023-04-26T17:40:35.810Z,84.25
2023-04-26T17:43:37.516Z,43.63
2023-04-26T17:46:39.174Z,14.57
2023-04-26T17:49:40.735Z,9.13
2023-04-26T17:52:45.596Z,9.23
2023-04-26T17:55:47.434Z,13.15
2023-04-26T17:58:49.233Z,9.05
2023-04-26T18:01:51.207Z,25.00
2023-04-26T18:04:53.521Z,11.85
2023-04-26T18:07:55.408Z,18.60
2023-04-26T18:10:57.990Z,9.93
2023-04-26T18:14:01.740Z,13.55
2023-04-26T18:17:04.504Z,22.92
2023-04-26T18:20:06.784Z,25.88
2023-04-26T18:26:10.942Z,6.28
2023-04-26T18:29:15.402Z,16.25
2023-04-26T18:32:40.843Z,4.88
2023-04-26T18:35:45.481Z,7.60
2023-04-26T18:38:47.236Z,6.60
2023-04-26T18:41:52.126Z,11.23
2023-04-26T18:44:53.855Z,12.00
2023-04-26T18:47:56.282Z,7.30
2023-04-26T18:50:57.850Z,5.03
2023-04-26T18:54:17.270Z,11.90
2023-04-26T18:57:25.224Z,4.65
2023-04-26T19:00:26.943Z,7.13
2023-04-26T19:03:28.648Z,4.70
2023-04-26T19:06:43.112Z,4.53
2023-04-26T19:09:53.516Z,3.80
2023-04-26T19:12:55.949Z,4.35
2023-04-26T19:15:57.661Z,4.20
2023-04-26T19:18:59.261Z,3.17
2023-04-26T19:22:35.257Z,4.73
2023-04-26T19:25:36.959Z,4.68
2023-04-26T19:28:38.572Z,4.80
2023-04-26T19:31:47.962Z,5.10
2023-04-26T19:34:52.896Z,5.05
2023-04-26T19:37:56.436Z,4.15
2023-04-26T19:40:58.004Z,4.35
2023-04-26T19:44:03.237Z,3.58
2023-04-26T19:47:25.442Z,4.65
2023-04-26T19:50:33.068Z,5.38
2023-04-26T19:53:35.435Z,4.65
2023-04-26T19:59:51.466Z,5.75
2023-04-26T20:02:53.274Z,9.95
2023-04-26T20:05:55.186Z,8.05
2023-04-26T20:08:56.866Z,8.38
2023-04-26T20:11:58.552Z,6.90
2023-04-26T20:15:00.321Z,6.18
2023-04-26T20:18:02.439Z,5.57
2023-04-26T20:21:04.931Z,4.45
2023-04-26T20:27:08.671Z,3.58
2023-04-26T20:30:33.187Z,3.05
2023-04-26T20:33:34.847Z,3.20
2023-04-26T20:36:37.980Z,3.65
2023-04-26T20:39:45.672Z,3.10
2023-04-26T20:42:47.250Z,2.80
2023-04-26T20:45:48.845Z,4.05
2023-04-26T20:48:52.566Z,3.45
2023-04-26T20:51:54.258Z,3.53
2023-04-26T20:54:58.208Z,3.75
2023-04-26T20:57:59.894Z,2.80
2023-04-26T21:01:01.722Z,3.00
2023-04-26T21:04:03.759Z,3.35
2023-04-26T21:07:05.583Z,2.70
2023-04-26T21:10:08.034Z,3.30
2023-04-26T21:16:11.359Z,3.70
2023-04-26T21:19:13.007Z,3.50
2023-04-26T21:22:14.682Z,4.30
2023-04-26T21:25:19.993Z,3.55
2023-04-26T21:28:22.031Z,3.38
2023-04-26T21:31:23.710Z,2.85
2023-04-26T21:34:25.369Z,4.05
2023-04-26T21:37:26.994Z,3.50
2023-04-26T21:40:28.601Z,2.80
2023-04-26T21:43:30.794Z,3.30
2023-04-26T21:46:32.474Z,3.03
2023-04-26T21:49:34.735Z,3.70
2023-04-26T21:52:36.351Z,2.97
2023-04-26T21:55:37.943Z,2.90
2023-04-26T21:58:39.463Z,3.38
2023-04-26T22:01:41.331Z,2.37
2023-04-26T22:04:42.850Z,3.33
2023-04-26T22:07:44.396Z,3.30
2023-04-26T22:10:46.164Z,3.50
2023-04-26T22:13:47.687Z,2.92
2023-04-26T22:16:53.566Z,3.37
2023-04-26T22:19:55.629Z,3.45
2023-04-26T22:22:57.156Z,3.30
2023-04-26T22:26:01.353Z,3.70
2023-04-26T22:29:03.112Z,3.08
2023-04-26T22:32:04.800Z,3.40
2023-04-26T22:35:07.245Z,3.45
2023-04-26T22:41:10.769Z,3.30
2023-04-26T22:44:15.046Z,3.25
2023-04-26T22:47:18.589Z,2.92
2023-04-26T22:50:20.429Z,3.60
2023-04-26T22:53:21.956Z,3.10
2023-04-26T22:56:23.553Z,2.90
2023-04-26T22:59:25.118Z,3.20
2023-04-26T23:02:26.765Z,3.03
2023-04-26T23:05:28.386Z,2.97
2023-04-26T23:08:29.955Z,3.17
2023-04-26T23:11:31.658Z,3.60
2023-04-26T23:14:33.638Z,2.72
2023-04-26T23:17:35.492Z,3.15
2023-04-26T23:20:37.097Z,2.83
2023-04-26T23:23:41.025Z,3.40
2023-04-26T23:26:42.570Z,2.83
2023-04-26T23:29:44.084Z,3.27
2023-04-26T23:32:45.826Z,3.53
2023-04-26T23:35:47.438Z,4.07
2023-04-26T23:38:49.048Z,3.00
2023-04-26T23:41:50.575Z,3.10
2023-04-26T23:44:52.086Z,3.27
2023-04-26T23:47:54.338Z,3.60
2023-04-26T23:50:56.016Z,3.05
2023-04-26T23:53:57.573Z,3.10
2023-04-26T23:57:03.995Z,3.30
